Time;durP1;ratioP1;P1;durP2;ratioP2;P2;SDS_P1;SDS_P2;PMS_P1;PMS_P2;Temp;Humidity;BMP_temperature;BMP_pressure;BME280_temperature;BME280_humidity;BME280_pressure;Samples;Min_cycle;Max_cycle;Signal;HPM_P1;HPM_P2
2022/10/29 00:01:45;;;;;;;11.90;7.97;;;13.30;99.90;;;;;;5029372;28;20055;-71
2022/10/29 00:04:11;;;;;;;11.57;7.55;;;13.30;99.90;;;;;;5023902;28;20029;-71
2022/10/29 00:06:36;;;;;;;10.23;6.93;;;13.30;99.90;;;;;;5024099;28;20092;-70
2022/10/29 00:09:03;;;;;;;9.85;7.05;;;13.20;99.90;;;;;;5023869;28;20084;-70
2022/10/29 00:11:29;;;;;;;8.70;6.28;;;13.20;99.90;;;;;;5023395;28;20021;-71
2022/10/29 00:13:58;;;;;;;12.18;7.15;;;13.30;99.90;;;;;;5027644;28;20037;-72
2022/10/29 00:16:27;;;;;;;11.27;7.40;;;13.30;99.90;;;;;;5026508;28;20056;-71
2022/10/29 00:18:54;;;;;;;8.07;5.78;;;13.30;99.90;;;;;;5029505;28;20021;-71
2022/10/29 00:21:23;;;;;;;4.65;3.50;;;13.30;99.90;;;;;;5029632;28;20520;-71
2022/10/29 00:23:49;;;;;;;5.50;4.22;;;13.30;99.90;;;;;;5028015;28;20030;-71
2022/10/29 00:26:17;;;;;;;3.83;3.30;;;13.30;99.90;;;;;;5030011;28;20103;-70
2022/10/29 00:28:43;;;;;;;3.47;2.97;;;13.40;99.90;;;;;;5027677;28;20112;-70
2022/10/29 00:31:22;;;;;;;4.28;3.53;;;13.40;99.90;;;;;;5026889;28;20108;-70
2022/10/29 00:33:49;;;;;;;5.30;4.07;;;13.40;99.90;;;;;;5029157;28;20021;-70
2022/10/29 00:36:17;;;;;;;5.38;4.18;;;13.50;99.90;;;;;;5029513;28;20148;-70
2022/10/29 00:38:43;;;;;;;4.85;4.03;;;13.50;99.90;;;;;;5028031;28;20020;-76
2022/10/29 00:41:12;;;;;;;7.28;4.40;;;13.50;99.90;;;;;;5028388;28;20029;-76
2022/10/29 00:43:42;;;;;;;6.50;4.43;;;13.40;99.90;;;;;;5011461;28;20022;-76
2022/10/29 00:46:32;;;;;;;5.57;4.28;;;13.40;99.90;;;;;;5025343;28;20052;-76
2022/10/29 00:48:58;;;;;;;6.40;4.43;;;13.40;99.90;;;;;;5030987;28;20025;-76
2022/10/29 00:51:25;;;;;;;5.00;4.28;;;13.40;99.90;;;;;;5029151;28;20063;-75
2022/10/29 00:54:03;;;;;;;8.73;5.88;;;13.40;99.90;;;;;;5026488;28;20076;-75
2022/10/29 00:56:32;;;;;;;9.02;6.05;;;13.40;99.90;;;;;;5030133;28;20032;-76
2022/10/29 00:58:58;;;;;;;10.38;6.68;;;13.40;99.90;;;;;;5029400;28;20074;-76
2022/10/29 01:01:24;;;;;;;10.45;6.80;;;13.30;99.90;;;;;;5029661;28;20914;-75
2022/10/29 01:03:51;;;;;;;9.88;6.63;;;13.30;99.90;;;;;;5028239;28;20104;-76
2022/10/29 01:06:17;;;;;;;9.80;7.13;;;13.30;99.90;;;;;;5025712;28;21187;-76
2022/10/29 01:08:43;;;;;;;9.57;7.07;;;13.30;99.90;;;;;;5030421;28;20429;-76
2022/10/29 01:11:32;;;;;;;10.43;7.57;;;13.30;99.90;;;;;;5029215;28;20126;-76
2022/10/29 01:14:07;;;;;;;10.38;6.65;;;13.30;99.90;;;;;;5029254;28;20029;-76
2022/10/29 01:16:59;;;;;;;9.27;6.78;;;13.30;99.90;;;;;;5026560;28;20044;-75
2022/10/29 01:19:27;;;;;;;10.52;7.07;;;13.30;99.90;;;;;;5026022;28;20044;-76
2022/10/29 01:22:07;;;;;;;9.55;6.07;;;13.20;99.90;;;;;;5032159;28;20632;-76
2022/10/29 01:25:00;;;;;;;8.85;6.38;;;13.20;99.90;;;;;;5024499;28;20022;-75
2022/10/29 01:27:54;;;;;;;9.40;6.82;;;13.20;99.90;;;;;;5028665;28;20037;-76
2022/10/29 01:30:19;;;;;;;8.82;6.47;;;13.30;99.90;;;;;;5026726;28;20033;-76
2022/10/29 01:33:06;;;;;;;10.15;6.78;;;13.30;99.90;;;;;;5025105;28;20039;-76
2022/10/29 01:35:47;;;;;;;14.55;6.93;;;13.30;99.90;;;;;;5027519;28;20036;-76
2022/10/29 01:38:23;;;;;;;9.20;7.13;;;13.40;99.90;;;;;;5026735;28;20036;-75
2022/10/29 01:41:06;;;;;;;10.05;7.43;;;13.40;99.90;;;;;;5028731;28;20090;-75
2022/10/29 01:43:40;;;;;;;9.60;7.13;;;13.30;99.90;;;;;;5031981;28;20075;-76
2022/10/29 01:46:11;;;;;;;8.82;6.95;;;13.40;99.90;;;;;;5027006;28;20037;-76
2022/10/29 01:48:46;;;;;;;12.70;7.73;;;13.40;99.90;;;;;;5031336;28;20057;-76
2022/10/29 01:51:19;;;;;;;10.45;7.32;;;13.30;99.90;;;;;;5026919;28;20092;-75
2022/10/29 01:53:45;;;;;;;11.65;7.90;;;13.20;99.90;;;;;;5025047;28;20061;-75
2022/10/29 01:56:10;;;;;;;13.20;7.75;;;13.10;99.90;;;;;;5024884;28;20143;-69
2022/10/29 01:58:37;;;;;;;13.82;7.90;;;13.10;99.90;;;;;;5025785;28;20033;-69
2022/10/29 02:01:08;;;;;;;10.07;7.43;;;13.10;99.90;;;;;;5027853;28;20021;-70
2022/10/29 02:03:46;;;;;;;10.10;7.63;;;13.20;99.90;;;;;;5030422;28;20037;-70
2022/10/29 02:06:42;;;;;;;9.35;7.35;;;13.20;99.90;;;;;;5026815;28;20034;-70
2022/10/29 02:09:25;;;;;;;10.93;7.13;;;13.30;99.90;;;;;;5028758;28;20033;-70
2022/10/29 02:11:57;;;;;;;9.02;7.53;;;13.30;99.90;;;;;;5029662;28;20074;-70
2022/10/29 02:14:32;;;;;;;12.25;8.32;;;13.40;99.90;;;;;;5029825;28;20030;-76
2022/10/29 02:16:59;;;;;;;11.25;7.88;;;13.40;99.90;;;;;;5011629;28;20455;-76
2022/10/29 02:19:29;;;;;;;12.45;9.18;;;13.40;99.90;;;;;;5029358;28;20033;-76
2022/10/29 02:21:55;;;;;;;12.60;9.05;;;13.40;99.90;;;;;;5027561;28;20099;-76
2022/10/29 02:24:20;;;;;;;11.38;7.60;;;13.40;99.90;;;;;;5032290;28;20069;-76
2022/10/29 02:26:46;;;;;;;11.10;7.68;;;13.30;99.90;;;;;;5026474;28;20057;-75
2022/10/29 02:29:11;;;;;;;10.25;7.38;;;13.30;99.90;;;;;;5023996;28;20110;-75
2022/10/29 02:31:37;;;;;;;10.07;7.03;;;13.20;99.90;;;;;;5026044;28;20036;-75
2022/10/29 02:34:02;;;;;;;9.55;7.05;;;13.20;99.90;;;;;;5035967;28;20025;-70
2022/10/29 02:36:28;;;;;;;8.82;6.53;;;13.20;99.90;;;;;;5023105;28;20482;-70
2022/10/29 02:38:54;;;;;;;8.82;7.03;;;13.20;99.90;;;;;;5027237;28;20032;-70
2022/10/29 02:41:19;;;;;;;7.60;6.05;;;13.20;99.90;;;;;;5030571;28;20517;-69
2022/10/29 02:43:45;;;;;;;9.00;6.75;;;13.20;99.90;;;;;;5013462;28;20067;-69
2022/10/29 02:46:18;;;;;;;8.60;6.85;;;13.20;99.90;;;;;;5024816;28;20029;-70
2022/10/29 02:48:44;;;;;;;9.43;7.10;;;13.20;99.90;;;;;;5013718;28;20030;-69
2022/10/29 02:51:10;;;;;;;10.27;6.40;;;13.20;99.90;;;;;;5006810;28;20082;-75
2022/10/29 02:53:36;;;;;;;9.75;7.07;;;13.30;99.90;;;;;;5026958;28;20089;-75
2022/10/29 02:56:03;;;;;;;26.83;7.72;;;13.30;99.90;;;;;;5013446;28;20045;-75
2022/10/29 02:58:29;;;;;;;10.65;6.53;;;13.20;99.90;;;;;;5023249;28;20025;-75
2022/10/29 03:00:54;;;;;;;8.38;6.60;;;13.20;99.90;;;;;;5026955;28;20040;-75
2022/10/29 03:03:21;;;;;;;9.13;6.57;;;13.20;99.90;;;;;;5007148;28;20048;-75
2022/10/29 03:05:46;;;;;;;11.02;6.75;;;13.20;99.90;;;;;;5029110;28;20030;-75
2022/10/29 03:08:12;;;;;;;7.45;5.68;;;13.20;99.90;;;;;;5027703;28;20040;-75
2022/10/29 03:10:38;;;;;;;8.02;6.00;;;13.20;99.90;;;;;;5026600;28;20477;-75
2022/10/29 03:13:03;;;;;;;9.18;6.20;;;13.20;99.90;;;;;;5026441;28;20030;-76
2022/10/29 03:15:29;;;;;;;11.02;7.22;;;13.20;99.90;;;;;;5028072;28;20046;-75
2022/10/29 03:17:54;;;;;;;10.05;6.72;;;13.20;99.90;;;;;;5027417;28;20537;-75
2022/10/29 03:20:20;;;;;;;9.27;6.60;;;13.20;99.90;;;;;;5025708;28;20037;-76
2022/10/29 03:22:46;;;;;;;10.82;7.10;;;13.20;99.90;;;;;;5023505;28;20505;-75
2022/10/29 03:25:11;;;;;;;13.63;7.30;;;13.20;99.90;;;;;;5024370;28;20112;-76
2022/10/29 03:27:43;;;;;;;9.00;5.90;;;13.30;99.90;;;;;;5027687;28;20072;-75
2022/10/29 03:30:11;;;;;;;8.23;6.47;;;13.30;99.90;;;;;;5027074;28;20556;-70
2022/10/29 03:32:44;;;;;;;8.25;6.82;;;13.30;99.90;;;;;;5027808;28;20048;-71
2022/10/29 03:35:11;;;;;;;11.70;6.43;;;13.20;99.90;;;;;;5027873;28;20043;-70
2022/10/29 03:37:37;;;;;;;7.93;5.95;;;13.20;99.90;;;;;;5026871;28;20037;-70
2022/10/29 03:40:03;;;;;;;9.82;6.25;;;13.20;99.90;;;;;;5029572;28;20033;-70
2022/10/29 03:42:32;;;;;;;6.65;5.38;;;13.20;99.90;;;;;;5023560;28;20044;-70
2022/10/29 03:44:59;;;;;;;7.43;5.50;;;13.10;99.90;;;;;;5029460;28;20034;-71
2022/10/29 03:47:25;;;;;;;11.40;6.50;;;13.10;99.90;;;;;;5028702;28;20093;-70
2022/10/29 03:49:50;;;;;;;8.38;5.57;;;13.00;99.90;;;;;;5029639;28;20028;-76
2022/10/29 03:52:16;;;;;;;8.23;5.95;;;13.10;99.90;;;;;;5028079;28;20025;-75
2022/10/29 03:54:42;;;;;;;10.20;5.93;;;13.10;99.90;;;;;;5017834;28;20030;-75
2022/10/29 03:57:07;;;;;;;8.27;6.00;;;13.10;99.90;;;;;;5029400;28;20103;-76
2022/10/29 03:59:33;;;;;;;7.60;6.10;;;13.10;99.90;;;;;;5028721;28;20030;-75
2022/10/29 04:01:59;;;;;;;7.63;6.32;;;13.20;99.90;;;;;;5030161;28;20105;-75
2022/10/29 04:04:24;;;;;;;8.63;6.35;;;13.20;99.90;;;;;;5030347;28;20021;-75
2022/10/29 04:07:08;;;;;;;8.60;6.10;;;13.10;99.90;;;;;;5008796;28;20037;-75
2022/10/29 04:09:34;;;;;;;8.73;5.78;;;13.10;99.90;;;;;;5019658;28;20041;-70
2022/10/29 04:12:00;;;;;;;9.98;6.53;;;13.00;99.90;;;;;;5030311;28;20448;-70
2022/10/29 04:14:25;;;;;;;10.27;6.28;;;13.10;99.90;;;;;;5027087;28;20025;-70
2022/10/29 04:16:51;;;;;;;11.40;6.15;;;13.00;99.90;;;;;;5029323;28;20081;-71
2022/10/29 04:19:16;;;;;;;7.32;5.80;;;13.00;99.90;;;;;;5034609;28;20116;-70
2022/10/29 04:21:42;;;;;;;8.15;5.53;;;13.00;99.90;;;;;;5028509;28;20037;-70
2022/10/29 04:24:08;;;;;;;11.00;5.68;;;13.00;99.90;;;;;;5032410;28;20043;-71
2022/10/29 04:26:33;;;;;;;8.90;6.20;;;13.00;99.90;;;;;;5030544;28;20044;-70
2022/10/29 04:28:59;;;;;;;9.32;5.88;;;13.10;99.90;;;;;;5030063;28;20021;-71
2022/10/29 04:31:24;;;;;;;9.75;6.03;;;13.10;99.90;;;;;;5028839;28;20140;-70
2022/10/29 04:33:52;;;;;;;8.48;5.43;;;13.10;99.90;;;;;;5031720;28;20080;-70
2022/10/29 04:36:18;;;;;;;9.75;6.30;;;13.10;99.90;;;;;;5029469;28;20043;-70
2022/10/29 04:38:43;;;;;;;10.80;6.40;;;13.10;99.90;;;;;;5016716;28;20022;-70
2022/10/29 04:41:09;;;;;;;8.40;5.43;;;13.10;99.90;;;;;;5030825;28;20115;-70
2022/10/29 04:43:34;;;;;;;8.25;5.20;;;13.10;99.90;;;;;;5031479;28;20112;-70
2022/10/29 04:46:00;;;;;;;10.15;6.13;;;13.20;99.90;;;;;;5027508;28;20118;-70
2022/10/29 04:48:27;;;;;;;8.80;6.13;;;13.10;99.90;;;;;;5028482;28;20518;-70
2022/10/29 04:50:53;;;;;;;9.63;5.95;;;13.10;99.90;;;;;;5029303;28;20049;-70
2022/10/29 04:53:19;;;;;;;10.98;6.07;;;13.10;99.90;;;;;;5025366;28;20025;-71
2022/10/29 04:55:45;;;;;;;9.75;6.90;;;13.10;99.90;;;;;;5029909;28;20088;-70
2022/10/29 04:58:14;;;;;;;10.68;7.13;;;13.10;99.90;;;;;;5029033;28;20159;-70
2022/10/29 05:00:40;;;;;;;10.65;7.70;;;13.10;99.90;;;;;;5012240;28;20401;-70
2022/10/29 05:03:06;;;;;;;9.45;7.13;;;13.20;99.90;;;;;;5027321;28;20021;-70
2022/10/29 05:05:32;;;;;;;12.25;9.80;;;13.30;99.90;;;;;;5031908;28;20040;-76
2022/10/29 05:07:59;;;;;;;13.45;8.70;;;13.20;99.90;;;;;;5029508;28;20037;-76
2022/10/29 05:10:30;;;;;;;13.55;10.00;;;13.20;99.90;;;;;;5031124;28;21642;-75
2022/10/29 05:13:01;;;;;;;11.10;9.02;;;13.10;99.90;;;;;;5025489;28;20029;-76
2022/10/29 05:15:28;;;;;;;13.57;9.88;;;13.10;99.90;;;;;;5027621;28;20120;-75
2022/10/29 05:17:54;;;;;;;15.35;9.90;;;13.10;99.90;;;;;;5028523;28;20194;-75
2022/10/29 05:20:20;;;;;;;14.48;10.10;;;13.20;99.90;;;;;;5027079;28;20117;-76
2022/10/29 05:22:46;;;;;;;13.82;9.95;;;13.20;99.90;;;;;;5025936;28;20104;-76
2022/10/29 05:25:11;;;;;;;15.85;10.52;;;13.20;99.90;;;;;;5030035;28;20375;-75
2022/10/29 05:27:37;;;;;;;16.00;11.52;;;13.20;99.90;;;;;;5025590;28;20742;-76
2022/10/29 05:30:03;;;;;;;14.48;9.90;;;13.10;99.90;;;;;;5029504;28;20737;-75
2022/10/29 05:32:29;;;;;;;12.65;9.82;;;13.10;99.90;;;;;;5026717;28;20133;-75
2022/10/29 05:34:54;;;;;;;11.18;8.45;;;13.10;99.90;;;;;;5027567;28;20517;-76
2022/10/29 05:37:20;;;;;;;12.25;8.65;;;13.10;99.90;;;;;;5029718;28;20112;-76
2022/10/29 05:39:46;;;;;;;10.60;8.20;;;13.10;99.90;;;;;;5028815;28;20025;-76
2022/10/29 05:42:11;;;;;;;12.82;7.60;;;13.00;99.90;;;;;;5030618;28;20098;-76
2022/10/29 05:44:37;;;;;;;10.10;8.10;;;13.00;99.90;;;;;;5026104;28;20104;-76
2022/10/29 05:47:04;;;;;;;9.88;7.70;;;13.00;99.90;;;;;;5027917;28;20593;-76
2022/10/29 05:49:30;;;;;;;11.30;7.85;;;13.00;99.90;;;;;;5029908;28;20017;-76
2022/10/29 05:51:55;;;;;;;11.30;7.97;;;13.00;99.90;;;;;;5027603;28;20501;-76
2022/10/29 05:54:21;;;;;;;12.30;8.63;;;13.00;99.90;;;;;;5033561;28;20104;-76
2022/10/29 05:56:47;;;;;;;12.30;7.88;;;12.90;99.90;;;;;;5027552;28;20129;-76
2022/10/29 05:59:12;;;;;;;10.15;7.65;;;12.90;99.90;;;;;;5028018;28;20474;-77
2022/10/29 06:01:38;;;;;;;11.68;8.25;;;12.90;99.90;;;;;;5029554;28;20040;-77
2022/10/29 06:04:03;;;;;;;11.25;7.93;;;12.90;99.90;;;;;;5024670;28;20033;-76
2022/10/29 06:06:30;;;;;;;8.98;6.88;;;12.90;99.90;;;;;;5028685;28;20040;-77
2022/10/29 06:08:55;;;;;;;11.70;7.53;;;12.90;99.90;;;;;;5028637;28;22686;-76
2022/10/29 06:11:21;;;;;;;11.73;7.60;;;12.90;99.90;;;;;;5033244;28;20068;-76
2022/10/29 06:13:46;;;;;;;13.63;8.10;;;12.90;99.90;;;;;;5030046;28;20025;-76
2022/10/29 06:16:12;;;;;;;12.05;8.05;;;13.00;99.90;;;;;;5031858;28;20159;-76
2022/10/29 06:18:37;;;;;;;11.77;8.25;;;12.90;99.90;;;;;;5029414;28;20040;-76
2022/10/29 06:21:03;;;;;;;12.50;8.20;;;12.90;99.90;;;;;;5028010;28;20025;-76
2022/10/29 06:23:29;;;;;;;13.45;8.32;;;12.90;99.90;;;;;;5023605;28;20045;-76
2022/10/29 06:25:58;;;;;;;13.32;9.48;;;12.90;99.90;;;;;;5021224;28;20038;-76
2022/10/29 06:28:24;;;;;;;16.90;11.65;;;12.90;99.90;;;;;;5026425;28;20041;-77
2022/10/29 06:30:50;;;;;;;15.15;9.45;;;12.90;99.90;;;;;;5027837;28;20040;-68
2022/10/29 06:33:17;;;;;;;15.00;8.65;;;13.00;99.90;;;;;;5030250;28;20053;-68
2022/10/29 06:35:43;;;;;;;12.57;7.68;;;13.00;99.90;;;;;;5030072;28;20025;-69
2022/10/29 06:38:09;;;;;;;16.30;7.93;;;12.90;99.90;;;;;;5027220;28;20438;-69
2022/10/29 06:40:34;;;;;;;15.55;8.60;;;13.00;99.90;;;;;;5027542;28;20103;-80
2022/10/29 06:43:02;;;;;;;14.50;7.95;;;13.00;99.90;;;;;;5011034;28;20039;-80
2022/10/29 06:45:28;;;;;;;15.82;8.25;;;13.10;99.90;;;;;;5024543;28;20620;-82
2022/10/29 06:47:54;;;;;;;11.60;7.88;;;13.10;99.90;;;;;;5025816;28;20037;-81
2022/10/29 06:50:20;;;;;;;13.52;7.95;;;13.10;99.90;;;;;;5025904;28;20025;-72
2022/10/29 06:52:56;;;;;;;12.75;7.97;;;13.10;99.90;;;;;;5029864;28;20401;-71
2022/10/29 06:55:22;;;;;;;13.90;9.13;;;13.10;99.90;;;;;;5031768;28;20039;-71
2022/10/29 06:57:54;;;;;;;16.88;8.80;;;13.10;99.90;;;;;;5031640;28;20115;-71
2022/10/29 07:00:19;;;;;;;12.63;8.40;;;13.10;99.90;;;;;;5025405;28;20025;-83
2022/10/29 07:02:45;;;;;;;14.30;8.07;;;13.00;99.90;;;;;;5023154;28;20037;-83
2022/10/29 07:05:10;;;;;;;12.95;7.78;;;13.00;99.90;;;;;;5024990;28;20044;-83
2022/10/29 07:07:36;;;;;;;12.90;7.88;;;13.00;99.90;;;;;;5023715;28;20037;-69
2022/10/29 07:10:02;;;;;;;12.45;8.00;;;13.00;99.90;;;;;;5030088;28;20103;-81
2022/10/29 07:12:27;;;;;;;12.85;9.00;;;13.00;99.90;;;;;;5031230;28;20049;-81
2022/10/29 07:14:53;;;;;;;12.68;7.90;;;13.00;99.90;;;;;;5031053;28;20103;-82
2022/10/29 07:17:18;;;;;;;15.32;9.48;;;13.00;99.90;;;;;;5030171;28;20037;-81
2022/10/29 07:19:44;;;;;;;15.30;10.65;;;13.00;99.90;;;;;;5025580;28;20158;-78
2022/10/29 07:22:09;;;;;;;14.80;8.88;;;12.90;99.90;;;;;;5029498;28;20021;-78
2022/10/29 07:24:35;;;;;;;14.75;9.93;;;12.90;99.90;;;;;;5027885;28;20029;-82
2022/10/29 07:27:00;;;;;;;19.02;13.90;;;13.00;99.90;;;;;;5034179;28;20037;-82
2022/10/29 07:29:26;;;;;;;17.48;10.57;;;13.00;99.90;;;;;;5031736;28;20389;-82
2022/10/29 07:31:52;;;;;;;21.77;14.23;;;13.10;99.90;;;;;;5032303;28;20029;-82
2022/10/29 07:34:17;;;;;;;32.38;17.48;;;13.00;99.90;;;;;;5031110;28;20025;-82
2022/10/29 07:36:43;;;;;;;27.50;15.27;;;13.10;99.90;;;;;;5028951;28;20524;-83
2022/10/29 07:39:08;;;;;;;14.80;10.25;;;13.10;99.90;;;;;;5029199;28;20378;-74
2022/10/29 07:41:34;;;;;;;16.92;10.40;;;13.20;99.90;;;;;;5030137;28;20644;-76
2022/10/29 07:43:59;;;;;;;17.77;10.27;;;13.30;99.90;;;;;;5031783;28;20033;-73
2022/10/29 07:46:25;;;;;;;21.35;14.63;;;13.30;99.90;;;;;;5027853;28;20047;-78
2022/10/29 07:48:50;;;;;;;19.83;11.98;;;13.30;99.90;;;;;;5030494;28;20663;-72
2022/10/29 07:51:16;;;;;;;20.05;10.55;;;13.30;99.90;;;;;;5030039;28;20022;-72
2022/10/29 07:53:42;;;;;;;20.85;12.10;;;13.30;99.90;;;;;;5028877;28;20587;-72
2022/10/29 07:56:07;;;;;;;20.38;11.63;;;13.30;99.90;;;;;;5028489;28;20068;-72
2022/10/29 07:58:33;;;;;;;20.30;12.35;;;13.30;99.90;;;;;;5029161;28;20112;-76
2022/10/29 08:00:59;;;;;;;22.75;12.70;;;13.30;99.90;;;;;;5028179;28;20037;-76
2022/10/29 08:03:25;;;;;;;30.05;20.23;;;13.20;99.90;;;;;;5031845;28;20087;-76
2022/10/29 08:05:50;;;;;;;22.52;13.35;;;13.30;99.90;;;;;;5010925;28;20037;-76
2022/10/29 08:08:16;;;;;;;25.23;17.13;;;13.30;99.90;;;;;;5034184;28;20722;-76
2022/10/29 08:10:43;;;;;;;23.70;16.10;;;13.30;99.90;;;;;;5029197;28;20554;-76
2022/10/29 08:13:08;;;;;;;26.77;17.52;;;13.40;99.90;;;;;;5014602;28;20022;-76
2022/10/29 08:15:34;;;;;;;32.92;22.27;;;13.40;99.90;;;;;;5029003;28;20056;-76
2022/10/29 08:18:00;;;;;;;26.13;16.63;;;13.40;99.90;;;;;;5029435;28;20033;-76
2022/10/29 08:20:27;;;;;;;32.58;17.88;;;13.40;99.90;;;;;;5027324;28;20108;-76
2022/10/29 08:22:53;;;;;;;30.25;21.35;;;13.40;99.90;;;;;;5010650;28;20109;-76
2022/10/29 08:25:19;;;;;;;23.92;15.38;;;13.40;99.90;;;;;;5017255;28;20546;-75
2022/10/29 08:27:56;;;;;;;56.85;39.78;;;13.50;99.90;;;;;;5027987;28;20057;-75
2022/10/29 08:30:22;;;;;;;37.58;22.30;;;13.50;99.90;;;;;;5027354;28;20049;-75
2022/10/29 08:32:47;;;;;;;29.20;17.90;;;13.50;99.90;;;;;;5026518;28;20057;-75
2022/10/29 08:35:14;;;;;;;64.03;45.40;;;13.30;99.90;;;;;;5029071;28;20033;-75
2022/10/29 08:37:44;;;;;;;61.80;40.78;;;13.40;99.90;;;;;;5030295;28;20037;-76
2022/10/29 08:40:27;;;;;;;57.53;36.40;;;13.40;99.90;;;;;;5026118;28;20041;-76
2022/10/29 08:43:11;;;;;;;54.17;37.05;;;13.40;99.90;;;;;;5025339;28;20017;-77
2022/10/29 08:45:39;;;;;;;43.03;27.42;;;13.40;99.90;;;;;;5029377;28;20017;-76
2022/10/29 08:48:18;;;;;;;46.53;26.90;;;13.30;99.90;;;;;;5029439;28;20063;-76
2022/10/29 08:50:49;;;;;;;38.85;26.58;;;13.30;99.90;;;;;;5026599;28;20052;-76
2022/10/29 08:53:22;;;;;;;65.57;51.33;;;13.30;99.90;;;;;;5031938;28;20038;-76
2022/10/29 08:55:48;;;;;;;29.48;19.85;;;13.40;99.90;;;;;;5030129;28;20066;-73
2022/10/29 08:58:37;;;;;;;29.42;17.23;;;13.40;99.90;;;;;;5026433;28;20117;-73
2022/10/29 09:01:11;;;;;;;33.53;18.00;;;13.40;99.90;;;;;;5025528;28;20432;-73
2022/10/29 09:03:37;;;;;;;29.98;17.35;;;13.40;99.90;;;;;;5022915;28;20033;-73
2022/10/29 09:06:13;;;;;;;226.40;176.57;;;13.40;99.90;;;;;;5029256;28;20073;-73
2022/10/29 09:08:51;;;;;;;48.60;30.77;;;13.50;99.90;;;;;;5026507;28;20018;-73
2022/10/29 09:11:36;;;;;;;33.17;19.60;;;13.40;99.90;;;;;;5031850;28;20026;-73
2022/10/29 09:14:20;;;;;;;40.80;22.38;;;13.40;99.90;;;;;;5034603;28;20026;-76
2022/10/29 09:16:48;;;;;;;36.53;21.23;;;13.50;99.90;;;;;;5031203;28;20050;-76
2022/10/29 09:19:43;;;;;;;427.83;332.52;;;13.50;99.90;;;;;;5027858;28;20051;-76
2022/10/29 09:22:46;;;;;;;159.85;131.68;;;13.50;99.90;;;;;;5019465;28;20043;-76
2022/10/29 09:25:22;;;;;;;82.22;64.18;;;13.60;99.90;;;;;;5029123;28;20033;-76
2022/10/29 09:28:10;;;;;;;43.85;27.17;;;13.60;99.90;;;;;;5024667;28;20041;-76
2022/10/29 09:30:53;;;;;;;50.63;31.05;;;13.60;99.90;;;;;;5027497;28;20397;-76
2022/10/29 09:33:21;;;;;;;37.65;21.40;;;13.70;99.90;;;;;;5026561;28;20033;-73
2022/10/29 09:35:52;;;;;;;37.35;22.27;;;13.60;99.90;;;;;;5012722;28;20104;-72
2022/10/29 09:38:35;;;;;;;49.42;31.75;;;13.60;99.90;;;;;;5026039;28;20660;-73
2022/10/29 09:41:02;;;;;;;37.95;20.05;;;13.70;99.90;;;;;;5027723;28;20028;-72
2022/10/29 09:43:42;;;;;;;37.08;20.20;;;13.70;99.90;;;;;;5027573;28;20029;-73
2022/10/29 09:46:35;;;;;;;36.00;19.85;;;13.70;99.90;;;;;;5027380;28;20041;-72
2022/10/29 09:49:00;;;;;;;29.38;18.58;;;13.70;99.90;;;;;;5031784;28;20056;-73
2022/10/29 09:51:35;;;;;;;33.60;20.10;;;13.60;99.90;;;;;;5024650;28;20167;-76
2022/10/29 09:54:01;;;;;;;33.63;19.23;;;13.60;99.90;;;;;;5025947;28;20420;-75
2022/10/29 09:56:26;;;;;;;34.78;21.75;;;13.60;99.90;;;;;;5030339;28;20032;-75
2022/10/29 09:59:01;;;;;;;38.72;22.42;;;13.70;99.90;;;;;;5027877;28;20021;-74
2022/10/29 10:01:26;;;;;;;43.88;26.95;;;13.70;99.90;;;;;;5026210;28;20121;-75
2022/10/29 10:03:57;;;;;;;38.78;23.73;;;13.70;99.90;;;;;;5027661;28;20108;-75
2022/10/29 10:06:22;;;;;;;41.00;23.65;;;13.70;99.90;;;;;;5029289;28;20129;-75
2022/10/29 10:08:58;;;;;;;31.55;19.63;;;13.70;99.90;;;;;;5027920;28;20827;-75
2022/10/29 10:11:29;;;;;;;37.35;21.30;;;13.60;99.90;;;;;;5030951;28;20631;-75
2022/10/29 10:13:57;;;;;;;37.63;20.50;;;13.60;99.90;;;;;;5028065;28;20741;-75
2022/10/29 10:16:28;;;;;;;32.80;20.73;;;13.60;99.90;;;;;;5030376;28;20059;-75
2022/10/29 10:18:54;;;;;;;33.83;21.48;;;13.60;99.90;;;;;;5028791;28;20554;-75
2022/10/29 10:21:24;;;;;;;42.22;25.98;;;13.60;99.90;;;;;;5028515;28;20063;-75
2022/10/29 10:23:52;;;;;;;41.60;27.27;;;13.60;99.90;;;;;;5024749;28;20061;-76
2022/10/29 10:26:41;;;;;;;36.65;21.95;;;13.70;99.90;;;;;;5025101;28;20522;-76
2022/10/29 10:29:23;;;;;;;36.63;21.95;;;13.70;99.90;;;;;;5027456;28;20041;-75
2022/10/29 10:32:12;;;;;;;40.97;27.23;;;13.80;99.90;;;;;;5031343;28;20064;-75
2022/10/29 10:34:38;;;;;;;43.88;27.25;;;13.90;99.90;;;;;;5027428;28;20017;-75
2022/10/29 10:37:09;;;;;;;36.60;22.33;;;14.00;99.90;;;;;;5027148;28;20025;-76
2022/10/29 10:39:51;;;;;;;31.87;22.10;;;14.00;99.90;;;;;;5028065;28;20025;-75
2022/10/29 10:42:24;;;;;;;39.20;23.90;;;14.00;99.90;;;;;;5012799;28;20289;-75
2022/10/29 10:44:53;;;;;;;32.33;20.85;;;14.00;99.90;;;;;;5023841;28;20517;-74
2022/10/29 10:47:22;;;;;;;36.90;23.38;;;14.10;99.90;;;;;;5010915;28;20470;-75
2022/10/29 10:49:48;;;;;;;28.48;20.40;;;14.10;99.90;;;;;;5023183;28;20033;-75
2022/10/29 10:52:25;;;;;;;32.78;21.30;;;14.00;99.90;;;;;;5025429;28;20102;-75
2022/10/29 10:54:59;;;;;;;37.00;20.83;;;14.00;99.90;;;;;;5027718;28;20072;-75
2022/10/29 10:57:28;;;;;;;31.10;18.50;;;14.00;99.90;;;;;;5026642;28;20037;-75
2022/10/29 11:00:15;;;;;;;28.20;17.83;;;14.00;99.90;;;;;;5027399;28;20033;-75
2022/10/29 11:02:53;;;;;;;26.83;17.42;;;14.00;99.90;;;;;;5033322;28;20036;-74
2022/10/29 11:05:40;;;;;;;28.58;17.70;;;14.00;99.90;;;;;;5025936;28;20124;-75
2022/10/29 11:08:25;;;;;;;37.45;25.33;;;14.00;99.90;;;;;;5025085;28;20045;-73
2022/10/29 11:11:08;;;;;;;28.67;18.27;;;14.00;99.90;;;;;;5027688;28;20025;-73
2022/10/29 11:13:34;;;;;;;29.35;17.85;;;14.10;99.90;;;;;;5030027;28;20025;-73
2022/10/29 11:16:19;;;;;;;34.45;19.90;;;14.10;99.90;;;;;;5022320;28;20733;-73
2022/10/29 11:18:49;;;;;;;35.85;23.13;;;14.10;99.90;;;;;;5027971;28;20027;-73
2022/10/29 11:21:33;;;;;;;36.20;21.67;;;14.20;99.90;;;;;;5028679;28;20563;-73
2022/10/29 11:24:19;;;;;;;25.08;15.98;;;14.20;99.90;;;;;;5025450;28;20021;-73
2022/10/29 11:26:53;;;;;;;32.90;20.55;;;14.20;99.90;;;;;;5025302;28;20118;-75
2022/10/29 11:29:30;;;;;;;33.72;20.77;;;14.20;99.90;;;;;;5026406;28;20017;-74
2022/10/29 11:32:11;;;;;;;30.60;19.73;;;14.20;99.90;;;;;;5027158;28;20022;-74
2022/10/29 11:34:58;;;;;;;35.63;21.27;;;14.20;99.90;;;;;;5028015;28;20128;-74
2022/10/29 11:37:43;;;;;;;39.85;22.85;;;14.20;99.90;;;;;;5010018;28;20048;-74
2022/10/29 11:40:33;;;;;;;34.03;22.65;;;14.10;99.90;;;;;;5029655;28;20029;-74
2022/10/29 11:43:01;;;;;;;33.40;20.83;;;14.20;99.90;;;;;;5030552;28;20021;-74
2022/10/29 11:45:58;;;;;;;38.65;22.63;;;14.20;99.90;;;;;;5021556;28;20025;-73
2022/10/29 11:48:27;;;;;;;34.67;22.38;;;14.20;99.90;;;;;;5010090;28;20522;-73
2022/10/29 11:51:30;;;;;;;37.03;23.73;;;14.20;99.90;;;;;;5027519;28;20116;-73
2022/10/29 11:54:04;;;;;;;28.73;18.80;;;14.30;99.90;;;;;;5013655;28;20764;-72
2022/10/29 11:57:11;;;;;;;27.00;18.05;;;14.30;99.90;;;;;;5030950;28;20034;-73
2022/10/29 12:00:04;;;;;;;29.30;17.92;;;14.30;99.90;;;;;;5014632;28;20135;-73
2022/10/29 12:02:38;;;;;;;27.75;18.67;;;14.20;99.90;;;;;;5023524;28;20033;-73
2022/10/29 12:05:22;;;;;;;26.73;18.23;;;14.20;99.90;;;;;;5025698;28;20098;-75
2022/10/29 12:07:57;;;;;;;28.75;19.00;;;14.20;99.90;;;;;;5028388;28;20037;-74
2022/10/29 12:10:28;;;;;;;33.70;20.52;;;14.30;99.90;;;;;;5026983;28;20029;-74
2022/10/29 12:13:27;;;;;;;31.37;20.43;;;14.20;99.90;;;;;;5026381;28;20120;-75
2022/10/29 12:16:23;;;;;;;31.67;21.48;;;14.10;99.90;;;;;;5028085;28;20064;-74
2022/10/29 12:19:05;;;;;;;38.78;23.83;;;14.20;99.90;;;;;;5030284;28;20049;-74
2022/10/29 12:21:35;;;;;;;34.13;21.00;;;14.20;99.90;;;;;;5026803;28;20071;-75
2022/10/29 12:24:23;;;;;;;29.52;20.98;;;14.20;99.90;;;;;;5033116;28;20033;-72
2022/10/29 12:26:52;;;;;;;30.52;19.60;;;14.20;99.90;;;;;;5030819;28;20041;-72
2022/10/29 12:29:24;;;;;;;30.67;20.55;;;14.10;99.90;;;;;;5030555;28;20079;-73
2022/10/29 12:32:05;;;;;;;31.85;20.02;;;14.10;99.90;;;;;;5027744;28;20025;-73
2022/10/29 12:35:01;;;;;;;27.92;18.67;;;14.20;99.90;;;;;;5028354;28;20030;-73
2022/10/29 12:37:46;;;;;;;28.17;17.73;;;14.20;99.90;;;;;;5013934;28;20486;-73
2022/10/29 12:40:21;;;;;;;27.27;18.10;;;14.30;99.90;;;;;;5027431;28;20021;-73
2022/10/29 12:42:48;;;;;;;28.17;18.42;;;14.30;99.90;;;;;;5029715;28;20033;-74
2022/10/29 12:45:13;;;;;;;29.88;18.20;;;14.30;99.90;;;;;;5026470;28;20540;-75
2022/10/29 12:47:58;;;;;;;28.50;18.70;;;14.30;99.90;;;;;;5037208;28;20045;-74
2022/10/29 12:50:43;;;;;;;26.25;18.40;;;14.20;99.90;;;;;;5028406;28;20096;-74
2022/10/29 12:53:11;;;;;;;34.80;22.77;;;14.20;99.90;;;;;;5030323;28;20108;-75
2022/10/29 12:55:37;;;;;;;27.50;18.00;;;14.30;99.90;;;;;;5026987;28;20037;-74